sensor_id;sensor_type;location;lat;lon;timestamp;temperature;humidity
4564;DHT22;2294;51.818;8.484;2022-12-07T00:01:25;9.00;99.90
4564;DHT22;2294;51.818;8.484;2022-12-07T00:03:55;9.00;99.90
4564;DHT22;2294;51.818;8.484;2022-12-07T00:06:26;9.10;99.90
4564;DHT22;2294;51.818;8.484;2022-12-07T00:08:53;9.10;99.90
4564;DHT22;2294;51.818;8.484;2022-12-07T00:11:21;9.10;99.90
4564;DHT22;2294;51.818;8.484;2022-12-07T00:13:51;9.10;99.90
4564;DHT22;2294;51.818;8.484;2022-12-07T00:16:20;9.10;99.90
4564;DHT22;2294;51.818;8.484;2022-12-07T00:18:47;9.20;99.90
4564;DHT22;2294;51.818;8.484;2022-12-07T00:21:17;9.20;99.90
4564;DHT22;2294;51.818;8.484;2022-12-07T00:23:45;9.20;99.90
4564;DHT22;2294;51.818;8.484;2022-12-07T00:26:15;9.20;99.90
4564;DHT22;2294;51.818;8.484;2022-12-07T00:28:45;9.30;99.90
4564;DHT22;2294;51.818;8.484;2022-12-07T00:31:13;9.30;99.90
4564;DHT22;2294;51.818;8.484;2022-12-07T00:33:40;9.30;99.90
4564;DHT22;2294;51.818;8.484;2022-12-07T00:36:09;9.40;99.90
4564;DHT22;2294;51.818;8.484;2022-12-07T00:38:39;9.40;99.90
4564;DHT22;2294;51.818;8.484;2022-12-07T00:41:10;9.40;99.90
4564;DHT22;2294;51.818;8.484;2022-12-07T00:43:37;9.50;99.90
4564;DHT22;2294;51.818;8.484;2022-12-07T00:46:04;9.50;99.90
4564;DHT22;2294;51.818;8.484;2022-12-07T00:48:31;9.60;99.90
4564;DHT22;2294;51.818;8.484;2022-12-07T00:50:58;9.60;99.90
4564;DHT22;2294;51.818;8.484;2022-12-07T00:53:25;9.80;99.90
4564;DHT22;2294;51.818;8.484;2022-12-07T00:55:54;9.90;99.90
4564;DHT22;2294;51.818;8.484;2022-12-07T00:58:22;10.00;99.90
4564;DHT22;2294;51.818;8.484;2022-12-07T01:00:49;10.10;99.90
4564;DHT22;2294;51.818;8.484;2022-12-07T01:03:16;10.10;99.90
4564;DHT22;2294;51.818;8.484;2022-12-07T01:05:49;10.20;99.90
4564;DHT22;2294;51.818;8.484;2022-12-07T01:08:17;10.20;99.90
4564;DHT22;2294;51.818;8.484;2022-12-07T01:10:44;10.10;99.90
4564;DHT22;2294;51.818;8.484;2022-12-07T01:13:12;10.20;99.90
4564;DHT22;2294;51.818;8.484;2022-12-07T01:15:40;10.20;99.90
4564;DHT22;2294;51.818;8.484;2022-12-07T01:18:07;10.30;99.90
4564;DHT22;2294;51.818;8.484;2022-12-07T01:20:34;10.30;99.90
4564;DHT22;2294;51.818;8.484;2022-12-07T01:23:01;10.30;99.90
4564;DHT22;2294;51.818;8.484;2022-12-07T01:25:28;10.40;99.90
4564;DHT22;2294;51.818;8.484;2022-12-07T01:27:55;10.30;99.90
4564;DHT22;2294;51.818;8.484;2022-12-07T01:30:23;10.40;99.90
4564;DHT22;2294;51.818;8.484;2022-12-07T01:32:50;10.40;99.90
4564;DHT22;2294;51.818;8.484;2022-12-07T01:35:17;10.30;99.90
4564;DHT22;2294;51.818;8.484;2022-12-07T01:37:44;10.40;99.90
4564;DHT22;2294;51.818;8.484;2022-12-07T01:40:11;10.50;99.90
4564;DHT22;2294;51.818;8.484;2022-12-07T01:42:38;10.50;99.90
4564;DHT22;2294;51.818;8.484;2022-12-07T01:48:11;10.50;99.90
4564;DHT22;2294;51.818;8.484;2022-12-07T01:50:40;10.50;99.90
4564;DHT22;2294;51.818;8.484;2022-12-07T01:53:09;10.50;99.90
4564;DHT22;2294;51.818;8.484;2022-12-07T01:55:40;10.50;99.90
4564;DHT22;2294;51.818;8.484;2022-12-07T01:58:08;10.50;99.90
4564;DHT22;2294;51.818;8.484;2022-12-07T02:00:35;10.50;99.90
4564;DHT22;2294;51.818;8.484;2022-12-07T02:03:05;10.60;99.90
4564;DHT22;2294;51.818;8.484;2022-12-07T02:05:37;10.50;99.90
4564;DHT22;2294;51.818;8.484;2022-12-07T02:08:05;10.60;99.90
4564;DHT22;2294;51.818;8.484;2022-12-07T02:10:32;10.60;99.90
4564;DHT22;2294;51.818;8.484;2022-12-07T02:13:01;10.60;99.90
4564;DHT22;2294;51.818;8.484;2022-12-07T02:15:38;10.60;99.90
4564;DHT22;2294;51.818;8.484;2022-12-07T02:18:09;10.50;99.90
4564;DHT22;2294;51.818;8.484;2022-12-07T02:20:44;10.60;99.90
4564;DHT22;2294;51.818;8.484;2022-12-07T02:26:47;10.60;99.90
4564;DHT22;2294;51.818;8.484;2022-12-07T02:29:22;10.60;99.90
4564;DHT22;2294;51.818;8.484;2022-12-07T02:31:58;10.60;99.90
4564;DHT22;2294;51.818;8.484;2022-12-07T02:34:37;10.60;99.90
4564;DHT22;2294;51.818;8.484;2022-12-07T02:37:13;10.60;99.90
4564;DHT22;2294;51.818;8.484;2022-12-07T02:39:44;10.60;99.90
4564;DHT22;2294;51.818;8.484;2022-12-07T02:42:17;10.60;99.90
4564;DHT22;2294;51.818;8.484;2022-12-07T02:44:47;10.60;99.90
4564;DHT22;2294;51.818;8.484;2022-12-07T02:47:16;10.60;99.90
4564;DHT22;2294;51.818;8.484;2022-12-07T02:49:46;10.60;99.90
4564;DHT22;2294;51.818;8.484;2022-12-07T02:52:13;10.60;99.90
4564;DHT22;2294;51.818;8.484;2022-12-07T02:54:40;10.60;99.90
4564;DHT22;2294;51.818;8.484;2022-12-07T02:57:25;10.60;99.90
4564;DHT22;2294;51.818;8.484;2022-12-07T03:00:03;10.60;99.90
4564;DHT22;2294;51.818;8.484;2022-12-07T03:02:38;10.50;99.90
4564;DHT22;2294;51.818;8.484;2022-12-07T03:05:15;9.90;99.90
4564;DHT22;2294;51.818;8.484;2022-12-07T03:07:51;10.50;99.90
4564;DHT22;2294;51.818;8.484;2022-12-07T03:10:26;10.40;99.90
4564;DHT22;2294;51.818;8.484;2022-12-07T03:13:00;10.40;99.90
4564;DHT22;2294;51.818;8.484;2022-12-07T03:15:34;10.30;99.90
4564;DHT22;2294;51.818;8.484;2022-12-07T03:18:03;10.30;99.90
4564;DHT22;2294;51.818;8.484;2022-12-07T03:20:32;10.20;99.90
4564;DHT22;2294;51.818;8.484;2022-12-07T03:23:01;10.20;99.90
4564;DHT22;2294;51.818;8.484;2022-12-07T03:25:29;10.10;99.90
4564;DHT22;2294;51.818;8.484;2022-12-07T03:27:58;10.10;99.90
4564;DHT22;2294;51.818;8.484;2022-12-07T03:30:29;10.10;99.90
4564;DHT22;2294;51.818;8.484;2022-12-07T03:33:03;10.00;99.90
4564;DHT22;2294;51.818;8.484;2022-12-07T03:35:36;10.00;99.90
4564;DHT22;2294;51.818;8.484;2022-12-07T03:38:11;10.00;99.90
4564;DHT22;2294;51.818;8.484;2022-12-07T03:40:44;10.00;99.90
4564;DHT22;2294;51.818;8.484;2022-12-07T03:43:16;9.90;99.90
4564;DHT22;2294;51.818;8.484;2022-12-07T03:45:49;9.90;99.90
4564;DHT22;2294;51.818;8.484;2022-12-07T03:48:24;9.90;99.90
4564;DHT22;2294;51.818;8.484;2022-12-07T03:50:55;9.80;99.90
4564;DHT22;2294;51.818;8.484;2022-12-07T03:53:30;9.80;99.90
4564;DHT22;2294;51.818;8.484;2022-12-07T03:56:01;9.60;99.90
4564;DHT22;2294;51.818;8.484;2022-12-07T03:58:29;9.50;99.90
4564;DHT22;2294;51.818;8.484;2022-12-07T04:00:56;9.50;99.90
4564;DHT22;2294;51.818;8.484;2022-12-07T04:03:24;9.50;99.90
4564;DHT22;2294;51.818;8.484;2022-12-07T04:05:51;9.50;99.90
4564;DHT22;2294;51.818;8.484;2022-12-07T04:08:18;9.50;99.90
4564;DHT22;2294;51.818;8.484;2022-12-07T04:10:45;9.50;99.90
4564;DHT22;2294;51.818;8.484;2022-12-07T04:13:12;9.50;99.90
4564;DHT22;2294;51.818;8.484;2022-12-07T04:15:39;9.50;99.90
4564;DHT22;2294;51.818;8.484;2022-12-07T04:18:06;9.40;99.90
4564;DHT22;2294;51.818;8.484;2022-12-07T04:20:34;9.40;99.90
4564;DHT22;2294;51.818;8.484;2022-12-07T04:23:01;9.30;99.90
4564;DHT22;2294;51.818;8.484;2022-12-07T04:25:28;9.10;99.90
4564;DHT22;2294;51.818;8.484;2022-12-07T04:27:55;9.10;99.90
4564;DHT22;2294;51.818;8.484;2022-12-07T04:30:22;9.00;99.90
4564;DHT22;2294;51.818;8.484;2022-12-07T04:32:49;8.80;99.90
4564;DHT22;2294;51.818;8.484;2022-12-07T04:35:16;8.70;99.90
4564;DHT22;2294;51.818;8.484;2022-12-07T04:37:44;8.70;99.90
4564;DHT22;2294;51.818;8.484;2022-12-07T04:40:11;8.70;99.90
4564;DHT22;2294;51.818;8.484;2022-12-07T04:42:39;8.80;99.90
4564;DHT22;2294;51.818;8.484;2022-12-07T04:45:07;8.80;99.90
4564;DHT22;2294;51.818;8.484;2022-12-07T04:47:34;8.80;99.90
4564;DHT22;2294;51.818;8.484;2022-12-07T04:50:01;8.80;99.90
4564;DHT22;2294;51.818;8.484;2022-12-07T04:52:28;8.70;99.90
4564;DHT22;2294;51.818;8.484;2022-12-07T04:54:56;8.70;99.90
4564;DHT22;2294;51.818;8.484;2022-12-07T04:57:23;8.70;99.90
4564;DHT22;2294;51.818;8.484;2022-12-07T04:59:50;8.70;99.90
4564;DHT22;2294;51.818;8.484;2022-12-07T05:02:17;8.70;99.90
4564;DHT22;2294;51.818;8.484;2022-12-07T05:04:44;8.60;99.90
4564;DHT22;2294;51.818;8.484;2022-12-07T05:07:10;8.60;99.90
4564;DHT22;2294;51.818;8.484;2022-12-07T05:09:37;8.60;99.90
4564;DHT22;2294;51.818;8.484;2022-12-07T05:12:06;8.60;99.90
4564;DHT22;2294;51.818;8.484;2022-12-07T05:14:32;8.60;99.90
4564;DHT22;2294;51.818;8.484;2022-12-07T05:16:59;8.60;99.90
4564;DHT22;2294;51.818;8.484;2022-12-07T05:19:26;8.60;99.90
4564;DHT22;2294;51.818;8.484;2022-12-07T05:21:53;8.60;99.90
4564;DHT22;2294;51.818;8.484;2022-12-07T05:24:20;8.50;99.90
4564;DHT22;2294;51.818;8.484;2022-12-07T05:26:47;8.50;99.90
4564;DHT22;2294;51.818;8.484;2022-12-07T05:29:16;8.40;99.90
4564;DHT22;2294;51.818;8.484;2022-12-07T05:31:44;8.40;99.90
4564;DHT22;2294;51.818;8.484;2022-12-07T05:34:11;8.40;99.90
4564;DHT22;2294;51.818;8.484;2022-12-07T05:36:39;8.40;99.90
4564;DHT22;2294;51.818;8.484;2022-12-07T05:39:06;8.30;99.90
4564;DHT22;2294;51.818;8.484;2022-12-07T05:41:33;8.40;99.90
4564;DHT22;2294;51.818;8.484;2022-12-07T05:44:19;8.40;99.90
4564;DHT22;2294;51.818;8.484;2022-12-07T05:46:46;8.40;99.90
4564;DHT22;2294;51.818;8.484;2022-12-07T05:49:13;8.40;99.90
4564;DHT22;2294;51.818;8.484;2022-12-07T05:51:40;8.30;99.90
4564;DHT22;2294;51.818;8.484;2022-12-07T05:54:06;8.40;99.90
4564;DHT22;2294;51.818;8.484;2022-12-07T05:56:33;8.40;99.90
4564;DHT22;2294;51.818;8.484;2022-12-07T05:59:00;8.40;99.90
4564;DHT22;2294;51.818;8.484;2022-12-07T06:01:46;8.40;99.90
4564;DHT22;2294;51.818;8.484;2022-12-07T06:04:13;8.40;99.90
4564;DHT22;2294;51.818;8.484;2022-12-07T06:06:40;8.40;99.90
4564;DHT22;2294;51.818;8.484;2022-12-07T06:09:07;8.40;99.90
4564;DHT22;2294;51.818;8.484;2022-12-07T06:11:34;8.30;99.90
4564;DHT22;2294;51.818;8.484;2022-12-07T06:14:18;8.30;99.90
4564;DHT22;2294;51.818;8.484;2022-12-07T06:16:46;8.30;99.90
4564;DHT22;2294;51.818;8.484;2022-12-07T06:19:13;8.40;99.90
4564;DHT22;2294;51.818;8.484;2022-12-07T06:21:40;8.30;99.90
4564;DHT22;2294;51.818;8.484;2022-12-07T06:24:07;8.30;99.90
4564;DHT22;2294;51.818;8.484;2022-12-07T06:26:35;8.20;99.90
4564;DHT22;2294;51.818;8.484;2022-12-07T06:29:02;8.20;99.90
4564;DHT22;2294;51.818;8.484;2022-12-07T06:31:29;8.20;99.90
4564;DHT22;2294;51.818;8.484;2022-12-07T06:33:59;8.20;99.90
4564;DHT22;2294;51.818;8.484;2022-12-07T06:36:26;8.20;99.90
4564;DHT22;2294;51.818;8.484;2022-12-07T06:38:54;8.10;99.90
4564;DHT22;2294;51.818;8.484;2022-12-07T06:41:21;8.00;99.90
4564;DHT22;2294;51.818;8.484;2022-12-07T06:43:48;7.90;99.90
4564;DHT22;2294;51.818;8.484;2022-12-07T06:46:16;7.90;99.90
4564;DHT22;2294;51.818;8.484;2022-12-07T06:48:43;7.90;99.90
4564;DHT22;2294;51.818;8.484;2022-12-07T06:51:11;7.80;99.90
4564;DHT22;2294;51.818;8.484;2022-12-07T06:53:38;7.80;99.90
4564;DHT22;2294;51.818;8.484;2022-12-07T06:56:06;7.80;99.90
4564;DHT22;2294;51.818;8.484;2022-12-07T06:58:32;7.90;99.90
4564;DHT22;2294;51.818;8.484;2022-12-07T07:00:59;7.90;99.90
4564;DHT22;2294;51.818;8.484;2022-12-07T07:03:26;7.90;99.90
4564;DHT22;2294;51.818;8.484;2022-12-07T07:05:53;7.90;99.90
4564;DHT22;2294;51.818;8.484;2022-12-07T07:08:22;7.90;99.90
4564;DHT22;2294;51.818;8.484;2022-12-07T07:10:49;7.80;99.90
4564;DHT22;2294;51.818;8.484;2022-12-07T07:13:16;7.70;99.90
4564;DHT22;2294;51.818;8.484;2022-12-07T07:15:43;7.60;99.90
4564;DHT22;2294;51.818;8.484;2022-12-07T07:18:10;7.60;99.90
4564;DHT22;2294;51.818;8.484;2022-12-07T07:20:37;7.60;99.90
4564;DHT22;2294;51.818;8.484;2022-12-07T07:23:05;7.50;99.90
4564;DHT22;2294;51.818;8.484;2022-12-07T07:25:33;7.40;99.90
4564;DHT22;2294;51.818;8.484;2022-12-07T07:28:00;7.40;99.90
4564;DHT22;2294;51.818;8.484;2022-12-07T07:30:27;7.40;99.90
4564;DHT22;2294;51.818;8.484;2022-12-07T07:32:56;7.50;99.90
4564;DHT22;2294;51.818;8.484;2022-12-07T07:35:24;7.40;99.90
4564;DHT22;2294;51.818;8.484;2022-12-07T07:37:51;7.40;99.90
4564;DHT22;2294;51.818;8.484;2022-12-07T07:40:19;7.30;99.90
4564;DHT22;2294;51.818;8.484;2022-12-07T07:42:49;7.30;99.90
4564;DHT22;2294;51.818;8.484;2022-12-07T07:45:16;7.30;99.90
4564;DHT22;2294;51.818;8.484;2022-12-07T07:47:43;7.20;99.90
4564;DHT22;2294;51.818;8.484;2022-12-07T07:50:10;7.20;99.90
4564;DHT22;2294;51.818;8.484;2022-12-07T07:52:37;7.20;99.90
4564;DHT22;2294;51.818;8.484;2022-12-07T07:55:04;7.20;99.90
4564;DHT22;2294;51.818;8.484;2022-12-07T07:57:34;7.30;99.90
4564;DHT22;2294;51.818;8.484;2022-12-07T08:00:04;7.30;99.90
4564;DHT22;2294;51.818;8.484;2022-12-07T08:02:31;7.30;99.90
4564;DHT22;2294;51.818;8.484;2022-12-07T08:04:58;7.30;99.90
4564;DHT22;2294;51.818;8.484;2022-12-07T08:07:25;7.30;99.90
4564;DHT22;2294;51.818;8.484;2022-12-07T08:09:53;7.20;99.90
4564;DHT22;2294;51.818;8.484;2022-12-07T08:12:20;7.20;99.90
4564;DHT22;2294;51.818;8.484;2022-12-07T08:14:47;7.20;99.90
4564;DHT22;2294;51.818;8.484;2022-12-07T08:17:15;7.10;99.90
4564;DHT22;2294;51.818;8.484;2022-12-07T08:19:42;7.10;99.90
4564;DHT22;2294;51.818;8.484;2022-12-07T08:22:09;7.10;99.90
4564;DHT22;2294;51.818;8.484;2022-12-07T08:24:36;7.20;99.90
4564;DHT22;2294;51.818;8.484;2022-12-07T08:27:03;7.30;99.90
4564;DHT22;2294;51.818;8.484;2022-12-07T08:29:30;7.30;99.90
4564;DHT22;2294;51.818;8.484;2022-12-07T08:31:57;7.30;99.90
4564;DHT22;2294;51.818;8.484;2022-12-07T08:34:27;7.30;99.90
4564;DHT22;2294;51.818;8.484;2022-12-07T08:36:54;7.40;99.90
4564;DHT22;2294;51.818;8.484;2022-12-07T08:39:21;7.50;99.90
4564;DHT22;2294;51.818;8.484;2022-12-07T08:41:48;7.50;99.90
4564;DHT22;2294;51.818;8.484;2022-12-07T08:44:18;7.70;99.90
4564;DHT22;2294;51.818;8.484;2022-12-07T08:46:47;7.80;99.90
4564;DHT22;2294;51.818;8.484;2022-12-07T08:49:17;7.90;99.90
4564;DHT22;2294;51.818;8.484;2022-12-07T08:51:46;8.00;99.90
4564;DHT22;2294;51.818;8.484;2022-12-07T08:54:15;8.10;99.90
4564;DHT22;2294;51.818;8.484;2022-12-07T08:56:44;8.00;99.90
4564;DHT22;2294;51.818;8.484;2022-12-07T08:59:14;8.10;99.90
4564;DHT22;2294;51.818;8.484;2022-12-07T09:01:41;8.10;99.90
4564;DHT22;2294;51.818;8.484;2022-12-07T09:04:08;8.00;99.90
4564;DHT22;2294;51.818;8.484;2022-12-07T09:06:35;8.10;99.90
4564;DHT22;2294;51.818;8.484;2022-12-07T09:09:04;8.00;99.90
4564;DHT22;2294;51.818;8.484;2022-12-07T09:11:32;8.00;99.90
4564;DHT22;2294;51.818;8.484;2022-12-07T09:13:58;8.00;99.90
4564;DHT22;2294;51.818;8.484;2022-12-07T09:16:25;8.00;99.90
4564;DHT22;2294;51.818;8.484;2022-12-07T09:18:52;7.90;99.90
4564;DHT22;2294;51.818;8.484;2022-12-07T09:21:19;7.80;99.90
4564;DHT22;2294;51.818;8.484;2022-12-07T09:23:46;7.80;99.90
4564;DHT22;2294;51.818;8.484;2022-12-07T09:26:14;7.70;99.90
4564;DHT22;2294;51.818;8.484;2022-12-07T09:28:41;7.70;99.90
4564;DHT22;2294;51.818;8.484;2022-12-07T09:31:08;7.70;99.90
4564;DHT22;2294;51.818;8.484;2022-12-07T09:33:35;7.70;99.90
4564;DHT22;2294;51.818;8.484;2022-12-07T09:36:03;7.80;99.90
4564;DHT22;2294;51.818;8.484;2022-12-07T09:38:30;7.90;99.90
4564;DHT22;2294;51.818;8.484;2022-12-07T09:41:04;8.00;99.90
4564;DHT22;2294;51.818;8.484;2022-12-07T09:43:35;8.00;99.90
4564;DHT22;2294;51.818;8.484;2022-12-07T09:46:02;8.10;99.90
4564;DHT22;2294;51.818;8.484;2022-12-07T09:48:32;8.10;99.90
4564;DHT22;2294;51.818;8.484;2022-12-07T09:51:02;8.20;99.90
4564;DHT22;2294;51.818;8.484;2022-12-07T09:53:33;8.30;99.90
4564;DHT22;2294;51.818;8.484;2022-12-07T09:56:01;8.20;99.90
4564;DHT22;2294;51.818;8.484;2022-12-07T09:58:30;8.40;99.90
4564;DHT22;2294;51.818;8.484;2022-12-07T10:01:01;8.50;99.90
4564;DHT22;2294;51.818;8.484;2022-12-07T10:03:31;8.60;99.90
4564;DHT22;2294;51.818;8.484;2022-12-07T10:05:59;8.50;99.90
4564;DHT22;2294;51.818;8.484;2022-12-07T10:08:26;8.50;99.90
4564;DHT22;2294;51.818;8.484;2022-12-07T10:10:54;8.50;99.90
4564;DHT22;2294;51.818;8.484;2022-12-07T10:13:33;8.50;99.90
4564;DHT22;2294;51.818;8.484;2022-12-07T10:16:01;8.50;99.90
4564;DHT22;2294;51.818;8.484;2022-12-07T10:18:31;8.50;99.90
4564;DHT22;2294;51.818;8.484;2022-12-07T10:21:13;8.40;99.90
4564;DHT22;2294;51.818;8.484;2022-12-07T10:23:41;8.40;99.90
4564;DHT22;2294;51.818;8.484;2022-12-07T10:26:32;8.50;99.90
4564;DHT22;2294;51.818;8.484;2022-12-07T10:29:02;8.40;99.90
4564;DHT22;2294;51.818;8.484;2022-12-07T10:31:32;8.30;99.90
4564;DHT22;2294;51.818;8.484;2022-12-07T10:34:00;8.20;99.90
4564;DHT22;2294;51.818;8.484;2022-12-07T10:36:34;8.30;99.90
4564;DHT22;2294;51.818;8.484;2022-12-07T10:39:10;8.20;99.90
4564;DHT22;2294;51.818;8.484;2022-12-07T10:41:53;8.20;99.90
4564;DHT22;2294;51.818;8.484;2022-12-07T10:44:22;8.00;99.90
4564;DHT22;2294;51.818;8.484;2022-12-07T10:47:10;8.00;99.90
4564;DHT22;2294;51.818;8.484;2022-12-07T10:50:13;8.00;99.90
4564;DHT22;2294;51.818;8.484;2022-12-07T10:52:55;7.80;99.90
4564;DHT22;2294;51.818;8.484;2022-12-07T10:55:39;7.80;99.90
4564;DHT22;2294;51.818;8.484;2022-12-07T10:58:21;7.80;99.90
4564;DHT22;2294;51.818;8.484;2022-12-07T11:00:56;8.00;99.90
4564;DHT22;2294;51.818;8.484;2022-12-07T11:03:41;7.90;99.90
4564;DHT22;2294;51.818;8.484;2022-12-07T11:06:20;7.90;99.90
4564;DHT22;2294;51.818;8.484;2022-12-07T11:09:03;8.10;99.90
4564;DHT22;2294;51.818;8.484;2022-12-07T11:11:34;7.90;99.90
4564;DHT22;2294;51.818;8.484;2022-12-07T11:14:09;7.90;99.90
4564;DHT22;2294;51.818;8.484;2022-12-07T11:16:52;8.10;99.90
4564;DHT22;2294;51.818;8.484;2022-12-07T11:22:23;7.90;99.90
4564;DHT22;2294;51.818;8.484;2022-12-07T11:24:57;8.00;99.90
4564;DHT22;2294;51.818;8.484;2022-12-07T11:27:35;8.00;99.90
4564;DHT22;2294;51.818;8.484;2022-12-07T11:30:12;7.90;99.90
4564;DHT22;2294;51.818;8.484;2022-12-07T11:33:00;7.90;99.90
4564;DHT22;2294;51.818;8.484;2022-12-07T11:35:39;8.00;99.90
4564;DHT22;2294;51.818;8.484;2022-12-07T11:38:13;8.10;99.90
4564;DHT22;2294;51.818;8.484;2022-12-07T11:40:43;8.00;99.90
4564;DHT22;2294;51.818;8.484;2022-12-07T11:43:17;8.00;99.90
4564;DHT22;2294;51.818;8.484;2022-12-07T11:45:47;8.00;99.90
4564;DHT22;2294;51.818;8.484;2022-12-07T11:48:22;8.00;99.90
4564;DHT22;2294;51.818;8.484;2022-12-07T11:50:56;7.80;99.90
4564;DHT22;2294;51.818;8.484;2022-12-07T11:53:26;7.90;99.90
4564;DHT22;2294;51.818;8.484;2022-12-07T11:55:57;8.00;99.90
4564;DHT22;2294;51.818;8.484;2022-12-07T11:58:44;8.10;99.90
4564;DHT22;2294;51.818;8.484;2022-12-07T12:01:26;7.80;99.90
4564;DHT22;2294;51.818;8.484;2022-12-07T12:04:01;7.70;99.90
4564;DHT22;2294;51.818;8.484;2022-12-07T12:06:30;7.90;99.90
4564;DHT22;2294;51.818;8.484;2022-12-07T12:09:04;7.80;99.90
4564;DHT22;2294;51.818;8.484;2022-12-07T12:11:44;8.00;99.90
4564;DHT22;2294;51.818;8.484;2022-12-07T12:17:31;7.80;99.90
4564;DHT22;2294;51.818;8.484;2022-12-07T12:20:06;7.70;99.90
4564;DHT22;2294;51.818;8.484;2022-12-07T12:22:45;7.70;99.90
4564;DHT22;2294;51.818;8.484;2022-12-07T12:25:21;7.70;99.90
4564;DHT22;2294;51.818;8.484;2022-12-07T12:27:50;7.80;99.90
4564;DHT22;2294;51.818;8.484;2022-12-07T12:30:34;7.90;99.90
4564;DHT22;2294;51.818;8.484;2022-12-07T12:33:04;8.00;99.90
4564;DHT22;2294;51.818;8.484;2022-12-07T12:35:34;8.10;99.90
4564;DHT22;2294;51.818;8.484;2022-12-07T12:38:27;8.60;99.90
4564;DHT22;2294;51.818;8.484;2022-12-07T12:40:56;8.40;99.90
4564;DHT22;2294;51.818;8.484;2022-12-07T12:43:49;8.90;99.90
4564;DHT22;2294;51.818;8.484;2022-12-07T12:46:48;9.20;99.90
4564;DHT22;2294;51.818;8.484;2022-12-07T12:49:53;9.00;99.90
4564;DHT22;2294;51.818;8.484;2022-12-07T12:52:57;9.00;99.90
4564;DHT22;2294;51.818;8.484;2022-12-07T12:58:42;9.00;99.90
4564;DHT22;2294;51.818;8.484;2022-12-07T13:01:44;8.50;99.90
4564;DHT22;2294;51.818;8.484;2022-12-07T13:04:47;8.00;99.90
4564;DHT22;2294;51.818;8.484;2022-12-07T13:10:28;8.00;99.90
4564;DHT22;2294;51.818;8.484;2022-12-07T13:12:59;8.00;99.90
4564;DHT22;2294;51.818;8.484;2022-12-07T13:15:35;7.80;99.90
4564;DHT22;2294;51.818;8.484;2022-12-07T13:18:22;8.00;99.90
4564;DHT22;2294;51.818;8.484;2022-12-07T13:20:51;7.90;99.90
4564;DHT22;2294;51.818;8.484;2022-12-07T13:23:21;7.90;99.90
4564;DHT22;2294;51.818;8.484;2022-12-07T13:26:05;7.90;99.90
4564;DHT22;2294;51.818;8.484;2022-12-07T13:28:38;7.90;99.90
4564;DHT22;2294;51.818;8.484;2022-12-07T13:31:33;7.90;99.90
4564;DHT22;2294;51.818;8.484;2022-12-07T13:34:01;7.90;99.90
4564;DHT22;2294;51.818;8.484;2022-12-07T13:36:31;8.00;99.90
4564;DHT22;2294;51.818;8.484;2022-12-07T13:39:16;8.00;99.90
4564;DHT22;2294;51.818;8.484;2022-12-07T13:41:44;8.00;99.90
4564;DHT22;2294;51.818;8.484;2022-12-07T13:44:14;8.00;99.90
4564;DHT22;2294;51.818;8.484;2022-12-07T13:46:49;8.00;99.90
4564;DHT22;2294;51.818;8.484;2022-12-07T13:49:19;8.00;99.90
4564;DHT22;2294;51.818;8.484;2022-12-07T13:51:47;8.00;99.90
4564;DHT22;2294;51.818;8.484;2022-12-07T13:54:15;8.10;99.90
4564;DHT22;2294;51.818;8.484;2022-12-07T13:56:42;8.10;99.90
4564;DHT22;2294;51.818;8.484;2022-12-07T13:59:14;8.10;99.90
4564;DHT22;2294;51.818;8.484;2022-12-07T14:01:46;8.10;99.90
4564;DHT22;2294;51.818;8.484;2022-12-07T14:04:31;8.00;99.90
4564;DHT22;2294;51.818;8.484;2022-12-07T14:06:58;8.00;99.90
4564;DHT22;2294;51.818;8.484;2022-12-07T14:09:28;8.00;99.90
4564;DHT22;2294;51.818;8.484;2022-12-07T14:11:56;7.80;99.90
4564;DHT22;2294;51.818;8.484;2022-12-07T14:14:26;7.80;99.90
4564;DHT22;2294;51.818;8.484;2022-12-07T14:19:50;7.70;99.90
4564;DHT22;2294;51.818;8.484;2022-12-07T14:22:24;7.60;99.90
4564;DHT22;2294;51.818;8.484;2022-12-07T14:24:59;7.50;99.90
4564;DHT22;2294;51.818;8.484;2022-12-07T14:27:31;7.50;99.90
4564;DHT22;2294;51.818;8.484;2022-12-07T14:29:59;7.50;99.90
4564;DHT22;2294;51.818;8.484;2022-12-07T14:32:27;7.40;99.90
4564;DHT22;2294;51.818;8.484;2022-12-07T14:34:58;7.30;99.90
4564;DHT22;2294;51.818;8.484;2022-12-07T14:37:26;7.30;99.90
4564;DHT22;2294;51.818;8.484;2022-12-07T14:39:54;7.20;99.90
4564;DHT22;2294;51.818;8.484;2022-12-07T14:42:23;7.10;99.90
4564;DHT22;2294;51.818;8.484;2022-12-07T14:44:51;7.00;99.90
4564;DHT22;2294;51.818;8.484;2022-12-07T14:47:18;7.00;99.90
4564;DHT22;2294;51.818;8.484;2022-12-07T14:49:44;7.00;99.90
4564;DHT22;2294;51.818;8.484;2022-12-07T14:52:15;6.90;99.90
4564;DHT22;2294;51.818;8.484;2022-12-07T14:54:42;6.90;99.90
4564;DHT22;2294;51.818;8.484;2022-12-07T14:57:10;6.80;99.90
4564;DHT22;2294;51.818;8.484;2022-12-07T14:59:38;6.80;99.90
4564;DHT22;2294;51.818;8.484;2022-12-07T15:02:05;6.80;99.90
4564;DHT22;2294;51.818;8.484;2022-12-07T15:04:32;6.70;99.90
4564;DHT22;2294;51.818;8.484;2022-12-07T15:07:01;6.60;99.90
4564;DHT22;2294;51.818;8.484;2022-12-07T15:09:30;6.60;99.90
4564;DHT22;2294;51.818;8.484;2022-12-07T15:11:57;6.60;99.90
4564;DHT22;2294;51.818;8.484;2022-12-07T15:14:24;6.70;99.90
4564;DHT22;2294;51.818;8.484;2022-12-07T15:16:51;6.60;99.90
4564;DHT22;2294;51.818;8.484;2022-12-07T15:19:19;6.50;99.90
4564;DHT22;2294;51.818;8.484;2022-12-07T15:21:48;6.50;99.90
4564;DHT22;2294;51.818;8.484;2022-12-07T15:24:16;6.50;99.90
4564;DHT22;2294;51.818;8.484;2022-12-07T15:26:44;6.60;99.90
4564;DHT22;2294;51.818;8.484;2022-12-07T15:29:11;6.60;99.90
4564;DHT22;2294;51.818;8.484;2022-12-07T15:31:40;6.60;99.90
4564;DHT22;2294;51.818;8.484;2022-12-07T15:34:07;6.60;99.90
4564;DHT22;2294;51.818;8.484;2022-12-07T15:36:34;6.60;99.90
4564;DHT22;2294;51.818;8.484;2022-12-07T15:39:01;6.70;99.90
4564;DHT22;2294;51.818;8.484;2022-12-07T15:41:28;6.70;99.90
4564;DHT22;2294;51.818;8.484;2022-12-07T15:43:57;6.70;99.90
4564;DHT22;2294;51.818;8.484;2022-12-07T15:46:41;6.70;99.90
4564;DHT22;2294;51.818;8.484;2022-12-07T15:49:11;6.60;99.90
4564;DHT22;2294;51.818;8.484;2022-12-07T15:51:39;6.60;99.90
4564;DHT22;2294;51.818;8.484;2022-12-07T15:54:07;6.60;99.90
4564;DHT22;2294;51.818;8.484;2022-12-07T15:56:34;6.60;99.90
4564;DHT22;2294;51.818;8.484;2022-12-07T15:59:02;6.60;99.90
4564;DHT22;2294;51.818;8.484;2022-12-07T16:01:29;6.60;99.90
4564;DHT22;2294;51.818;8.484;2022-12-07T16:03:57;6.60;99.90
4564;DHT22;2294;51.818;8.484;2022-12-07T16:06:25;6.60;99.90
4564;DHT22;2294;51.818;8.484;2022-12-07T16:08:52;6.50;99.90
4564;DHT22;2294;51.818;8.484;2022-12-07T16:11:20;6.50;99.90
4564;DHT22;2294;51.818;8.484;2022-12-07T16:13:47;6.50;99.90
4564;DHT22;2294;51.818;8.484;2022-12-07T16:16:16;6.50;99.90
4564;DHT22;2294;51.818;8.484;2022-12-07T16:18:46;6.50;99.90
4564;DHT22;2294;51.818;8.484;2022-12-07T16:21:14;6.50;99.90
4564;DHT22;2294;51.818;8.484;2022-12-07T16:23:41;6.50;99.90
4564;DHT22;2294;51.818;8.484;2022-12-07T16:26:11;6.50;99.90
4564;DHT22;2294;51.818;8.484;2022-12-07T16:28:38;6.50;99.90
4564;DHT22;2294;51.818;8.484;2022-12-07T16:31:07;6.40;99.90
4564;DHT22;2294;51.818;8.484;2022-12-07T16:33:38;6.40;99.90
4564;DHT22;2294;51.818;8.484;2022-12-07T16:36:06;6.40;99.90
4564;DHT22;2294;51.818;8.484;2022-12-07T16:38:35;6.30;99.90
4564;DHT22;2294;51.818;8.484;2022-12-07T16:41:02;4.90;99.90
4564;DHT22;2294;51.818;8.484;2022-12-07T16:43:29;6.30;99.90
4564;DHT22;2294;51.818;8.484;2022-12-07T16:45:55;6.20;99.90
4564;DHT22;2294;51.818;8.484;2022-12-07T16:48:22;6.10;99.90
4564;DHT22;2294;51.818;8.484;2022-12-07T16:50:51;6.20;99.90
4564;DHT22;2294;51.818;8.484;2022-12-07T16:53:20;6.20;99.90
4564;DHT22;2294;51.818;8.484;2022-12-07T16:55:48;5.90;99.90
4564;DHT22;2294;51.818;8.484;2022-12-07T16:58:15;5.90;99.90